Time;durP1;ratioP1;P1;durP2;ratioP2;P2;SDS_P1;SDS_P2;PMS_P1;PMS_P2;Temp;Humidity;BMP_temperature;BMP_pressure;BME280_temperature;BME280_humidity;BME280_pressure;Samples;Min_cycle;Max_cycle;Signal;HPM_P1;HPM_P2
2023/05/14 00:03:04;;;;;;;;;;;;;;;9.97;100.00;95610.59;10446330;28;1874;-71
2023/05/14 00:08:08;;;;;;;;;;;;;;;9.91;100.00;95600.94;10426497;28;1851;-71
2023/05/14 00:13:14;;;;;;;;;;;;;;;9.77;100.00;95603.38;10429710;28;1915;-71
2023/05/14 00:18:25;;;;;;;;;;;;;;;9.71;100.00;95607.97;10446913;28;1865;-72
2023/05/14 00:23:28;;;;;;;;;;;;;;;9.69;100.00;95599.38;10447165;28;1853;-71
2023/05/14 00:28:32;;;;;;;;;;;;;;;9.74;100.00;95596.69;10431485;28;1911;-71
2023/05/14 00:33:36;;;;;;;;;;;;;;;9.70;100.00;95601.00;10444910;28;4454;-72
2023/05/14 00:38:40;;;;;;;;;;;;;;;9.72;100.00;95601.50;10442175;28;2108;-71
2023/05/14 00:43:43;;;;;;;;;;;;;;;9.58;100.00;95600.47;10431719;28;2036;-78
2023/05/14 00:48:51;;;;;;;;;;;;;;;9.52;100.00;95598.88;10428910;28;1949;-71
2023/05/14 00:53:54;;;;;;;;;;;;;;;9.50;100.00;95594.88;10428144;28;1960;-71
2023/05/14 00:58:58;;;;;;;;;;;;;;;9.51;100.00;95586.53;10429209;28;1765;-72
2023/05/14 01:04:06;;;;;;;;;;;;;;;9.44;100.00;95594.88;10426807;28;1845;-71
2023/05/14 01:09:12;;;;;;;;;;;;;;;9.47;100.00;95591.63;10438770;28;1944;-72
2023/05/14 01:14:16;;;;;;;;;;;;;;;9.55;100.00;95584.94;10443201;28;1875;-71
2023/05/14 01:19:23;;;;;;;;;;;;;;;9.35;100.00;95590.31;10430862;28;1922;-72
2023/05/14 01:24:30;;;;;;;;;;;;;;;9.37;100.00;95590.84;10446494;28;1860;-72
2023/05/14 01:29:33;;;;;;;;;;;;;;;9.33;100.00;95579.03;10415349;28;1935;-72
2023/05/14 01:34:39;;;;;;;;;;;;;;;9.29;100.00;95581.47;10441036;28;4522;-72
2023/05/14 01:39:43;;;;;;;;;;;;;;;9.28;100.00;95577.16;10425792;28;1895;-71
2023/05/14 01:44:50;;;;;;;;;;;;;;;9.36;100.00;95568.59;10442406;28;2143;-73
2023/05/14 01:49:56;;;;;;;;;;;;;;;9.38;100.00;95571.00;10443253;28;1975;-71
2023/05/14 01:55:00;;;;;;;;;;;;;;;9.35;100.00;95563.47;10446605;28;1865;-71
2023/05/14 02:00:04;;;;;;;;;;;;;;;9.31;100.00;95565.13;10441796;28;1956;-71
2023/05/14 02:05:08;;;;;;;;;;;;;;;9.36;100.00;95557.88;10440514;28;1945;-70
2023/05/14 02:10:13;;;;;;;;;;;;;;;9.29;100.00;95556.50;10443837;28;1964;-72
2023/05/14 02:15:20;;;;;;;;;;;;;;;9.31;100.00;95554.38;10438638;28;2106;-70
2023/05/14 02:20:24;;;;;;;;;;;;;;;9.21;100.00;95561.34;10444417;28;1846;-70
2023/05/14 02:25:31;;;;;;;;;;;;;;;9.20;100.00;95562.44;10427830;28;1992;-71
2023/05/14 02:30:33;;;;;;;;;;;;;;;9.39;100.00;95551.16;10440032;28;2004;-71
2023/05/14 02:35:37;;;;;;;;;;;;;;;9.23;100.00;95552.25;10441974;28;4499;-71
2023/05/14 02:40:41;;;;;;;;;;;;;;;9.23;100.00;95563.78;10427332;28;2053;-71
2023/05/14 02:45:45;;;;;;;;;;;;;;;9.12;100.00;95557.63;10441186;28;2324;-71
2023/05/14 02:50:51;;;;;;;;;;;;;;;9.15;100.00;95559.75;10443214;28;2006;-71
2023/05/14 02:55:57;;;;;;;;;;;;;;;9.09;100.00;95543.94;10436056;28;1956;-72
2023/05/14 03:01:03;;;;;;;;;;;;;;;9.02;100.00;95549.56;10440980;28;1983;-72
2023/05/14 03:06:07;;;;;;;;;;;;;;;9.17;100.00;95546.88;10420531;28;1957;-69
2023/05/14 03:11:10;;;;;;;;;;;;;;;9.03;100.00;95547.69;10443087;28;2001;-72
2023/05/14 03:16:14;;;;;;;;;;;;;;;9.03;100.00;95543.13;10439535;28;1925;-76
2023/05/14 03:21:17;;;;;;;;;;;;;;;9.03;100.00;95540.44;10432412;28;1964;-72
2023/05/14 03:26:20;;;;;;;;;;;;;;;9.00;100.00;95538.31;10425683;28;1887;-73
2023/05/14 03:31:25;;;;;;;;;;;;;;;8.89;100.00;95536.69;10448703;28;1980;-71
2023/05/14 03:36:31;;;;;;;;;;;;;;;8.82;100.00;95536.16;10445189;28;4517;-71
2023/05/14 03:41:38;;;;;;;;;;;;;;;8.83;100.00;95543.13;10447790;28;2238;-72
2023/05/14 03:46:43;;;;;;;;;;;;;;;9.00;100.00;95535.63;10445921;28;1894;-72
2023/05/14 03:51:46;;;;;;;;;;;;;;;9.06;100.00;95533.75;10433545;28;2033;-72
2023/05/14 03:56:50;;;;;;;;;;;;;;;8.98;100.00;95528.94;10419929;28;1916;-72
2023/05/14 04:01:53;;;;;;;;;;;;;;;8.93;100.00;95527.06;10433142;28;1980;-70
2023/05/14 04:06:58;;;;;;;;;;;;;;;8.90;100.00;95525.69;10435298;28;2358;-71
2023/05/14 04:12:01;;;;;;;;;;;;;;;8.97;100.00;95524.63;10447205;28;1985;-70
2023/05/14 04:17:15;;;;;;;;;;;;;;;8.93;100.00;95521.69;10446375;28;1811;-72
2023/05/14 04:22:25;;;;;;;;;;;;;;;9.10;100.00;95527.59;10444297;28;1969;-71
2023/05/14 04:27:29;;;;;;;;;;;;;;;9.18;100.00;95524.34;10447955;28;1964;-72
2023/05/14 04:32:33;;;;;;;;;;;;;;;9.05;100.00;95527.59;10429896;28;2090;-71
2023/05/14 04:37:38;;;;;;;;;;;;;;;9.08;100.00;95532.41;10446905;28;4418;-72
2023/05/14 04:42:42;;;;;;;;;;;;;;;9.21;100.00;95536.41;10444639;28;1946;-74
2023/05/14 04:47:46;;;;;;;;;;;;;;;9.23;100.00;95536.97;10446672;28;1990;-72
2023/05/14 04:52:49;;;;;;;;;;;;;;;9.28;100.00;95538.81;10448117;28;1981;-71
2023/05/14 04:57:54;;;;;;;;;;;;;;;9.18;100.00;95543.13;10445861;28;1962;-71
2023/05/14 05:03:03;;;;;;;;;;;;;;;9.07;100.00;95538.84;10438056;28;1954;-71
2023/05/14 05:08:10;;;;;;;;;;;;;;;9.13;100.00;95542.31;10428462;28;1969;-72
2023/05/14 05:13:15;;;;;;;;;;;;;;;8.98;100.00;95542.34;10424134;28;2002;-71
2023/05/14 05:18:20;;;;;;;;;;;;;;;8.89;100.00;95544.75;10445433;28;2274;-72
2023/05/14 05:23:23;;;;;;;;;;;;;;;8.88;100.00;95540.47;10447563;28;1906;-70
2023/05/14 05:28:26;;;;;;;;;;;;;;;8.94;100.00;95547.44;10445083;28;1917;-70
2023/05/14 05:33:30;;;;;;;;;;;;;;;8.97;100.00;95544.22;10444994;28;4451;-71
2023/05/14 05:38:35;;;;;;;;;;;;;;;8.99;100.00;95542.06;10442711;28;1945;-71
2023/05/14 05:43:40;;;;;;;;;;;;;;;8.98;100.00;95545.84;10437859;28;2115;-73
2023/05/14 05:48:45;;;;;;;;;;;;;;;8.96;100.00;95541.78;10440143;28;1910;-73
2023/05/14 05:53:48;;;;;;;;;;;;;;;9.03;100.00;95551.16;10425941;28;2011;-72
2023/05/14 05:58:56;;;;;;;;;;;;;;;9.04;100.00;95560.84;10443843;28;1878;-75
2023/05/14 06:04:04;;;;;;;;;;;;;;;9.09;100.00;95552.78;10424490;28;1985;-72
2023/05/14 06:09:07;;;;;;;;;;;;;;;9.05;100.00;95546.34;10441211;28;1920;-75
2023/05/14 06:14:17;;;;;;;;;;;;;;;9.11;100.00;95549.84;10447083;28;1952;-73
2023/05/14 06:19:21;;;;;;;;;;;;;;;9.29;100.00;95551.97;10436956;28;2108;-72
2023/05/14 06:24:28;;;;;;;;;;;;;;;9.36;100.00;95538.28;10444264;28;1941;-72
2023/05/14 06:29:32;;;;;;;;;;;;;;;9.42;100.00;95535.31;10441007;28;2009;-74
2023/05/14 06:34:38;;;;;;;;;;;;;;;9.65;100.00;95535.78;10422984;28;4439;-71
2023/05/14 06:39:48;;;;;;;;;;;;;;;9.55;100.00;95539.31;10421443;28;1924;-73
2023/05/14 06:45:05;;;;;;;;;;;;;;;9.75;100.00;95535.75;10442680;28;1917;-71
2023/05/14 06:50:13;;;;;;;;;;;;;;;9.57;100.00;95534.47;10420382;28;2256;-74
2023/05/14 06:55:23;;;;;;;;;;;;;;;9.77;100.00;95535.47;10440907;28;1910;-71
2023/05/14 07:00:27;;;;;;;;;;;;;;;9.70;100.00;95533.88;10433411;28;1869;-72
2023/05/14 07:05:32;;;;;;;;;;;;;;;9.67;100.00;95534.44;10429224;28;1983;-72
2023/05/14 07:10:37;;;;;;;;;;;;;;;9.82;100.00;95530.91;10433084;28;1969;-72
2023/05/14 07:15:44;;;;;;;;;;;;;;;9.62;100.00;95514.88;10448617;28;2048;-71
2023/05/14 07:20:59;;;;;;;;;;;;;;;9.84;100.00;95503.78;10452263;28;2063;-73
2023/05/14 07:26:03;;;;;;;;;;;;;;;10.24;100.00;95505.47;10443819;28;1995;-70
2023/05/14 07:31:07;;;;;;;;;;;;;;;10.60;100.00;95505.25;10429130;28;2043;-71
2023/05/14 07:36:15;;;;;;;;;;;;;;;10.67;100.00;95494.97;10445635;28;1970;-74
2023/05/14 07:41:21;;;;;;;;;;;;;;;10.03;100.00;95502.06;10448674;28;1885;-72
2023/05/14 07:46:29;;;;;;;;;;;;;;;10.47;100.00;95502.13;10458349;28;1883;-71
2023/05/14 07:51:32;;;;;;;;;;;;;;;10.46;100.00;95488.97;10445780;28;2000;-72
2023/05/14 07:56:38;;;;;;;;;;;;;;;10.64;100.00;95480.22;10444450;28;1952;-71
2023/05/14 08:01:45;;;;;;;;;;;;;;;10.81;100.00;95480.63;10444264;28;1953;-73
2023/05/14 08:06:57;;;;;;;;;;;;;;;10.90;100.00;95475.44;10452044;28;1933;-72
2023/05/14 08:12:01;;;;;;;;;;;;;;;10.87;100.00;95483.25;10453036;28;2044;-73
2023/05/14 08:17:07;;;;;;;;;;;;;;;11.04;100.00;95478.28;10446826;28;1890;-76
2023/05/14 08:22:22;;;;;;;;;;;;;;;11.25;100.00;95479.66;10444569;28;2120;-73
2023/05/14 08:27:30;;;;;;;;;;;;;;;10.99;100.00;95491.75;10453839;28;1957;-77
2023/05/14 08:32:38;;;;;;;;;;;;;;;10.98;100.00;95492.84;10432879;28;1927;-73
2023/05/14 08:37:41;;;;;;;;;;;;;;;10.61;100.00;95488.03;10448929;28;4541;-74
2023/05/14 08:42:51;;;;;;;;;;;;;;;10.46;100.00;95488.97;10445622;28;2261;-73
2023/05/14 08:48:01;;;;;;;;;;;;;;;10.50;100.00;95484.66;10452495;28;1960;-71
2023/05/14 08:53:05;;;;;;;;;;;;;;;10.95;100.00;95480.78;10455894;28;1973;-71
2023/05/14 08:58:11;;;;;;;;;;;;;;;10.91;100.00;95484.31;10442716;28;2068;-71
2023/05/14 09:03:17;;;;;;;;;;;;;;;10.93;100.00;95485.63;10449581;28;1909;-75
2023/05/14 09:08:20;;;;;;;;;;;;;;;10.61;100.00;95483.47;10444788;28;2199;-71
2023/05/14 09:13:26;;;;;;;;;;;;;;;11.06;100.00;95479.56;10443443;28;1922;-73
2023/05/14 09:18:32;;;;;;;;;;;;;;;11.30;100.00;95463.47;10414520;28;2157;-71
2023/05/14 09:23:37;;;;;;;;;;;;;;;11.38;100.00;95456.66;10441946;28;1879;-72
2023/05/14 09:28:45;;;;;;;;;;;;;;;11.68;100.00;95452.81;10424084;28;1874;-74
2023/05/14 09:33:49;;;;;;;;;;;;;;;11.45;100.00;95456.31;10446441;28;4555;-75
2023/05/14 09:38:57;;;;;;;;;;;;;;;11.47;100.00;95464.94;10447479;28;1904;-72
2023/05/14 09:44:02;;;;;;;;;;;;;;;11.83;100.00;95455.38;10445958;28;1964;-72
2023/05/14 09:49:08;;;;;;;;;;;;;;;11.85;100.00;95447.00;10442725;28;1949;-72
2023/05/14 09:54:14;;;;;;;;;;;;;;;12.35;100.00;95439.31;10428241;28;1933;-73
2023/05/14 09:59:19;;;;;;;;;;;;;;;12.44;100.00;95434.84;10444415;28;2010;-70
2023/05/14 10:04:27;;;;;;;;;;;;;;;12.56;100.00;95426.31;10441518;28;1972;-71
2023/05/14 10:14:57;;;;;;;;;;;;;;;11.52;100.00;95449.53;10440430;28;2098;-71
2023/05/14 10:20:08;;;;;;;;;;;;;;;11.08;100.00;95458.59;10443513;28;2008;-73
2023/05/14 10:25:15;;;;;;;;;;;;;;;11.31;100.00;95458.91;10440299;28;1945;-73
2023/05/14 10:30:18;;;;;;;;;;;;;;;11.37;100.00;95450.47;10440870;28;1985;-72
2023/05/14 10:35:27;;;;;;;;;;;;;;;11.30;100.00;95451.91;10436277;28;2014;-72
2023/05/14 10:40:31;;;;;;;;;;;;;;;11.39;100.00;95460.97;10425252;28;1773;-72
2023/05/14 10:45:35;;;;;;;;;;;;;;;11.33;100.00;95454.84;10428802;28;1907;-70
2023/05/14 10:50:41;;;;;;;;;;;;;;;11.23;100.00;95456.84;10445885;28;1676;-79
2023/05/14 10:55:50;;;;;;;;;;;;;;;11.17;100.00;95456.09;10441297;28;1910;-72
2023/05/14 11:00:55;;;;;;;;;;;;;;;11.55;100.00;95445.44;10440729;28;1847;-74
2023/05/14 11:06:03;;;;;;;;;;;;;;;11.67;100.00;95448.53;10416072;28;1792;-71
2023/05/14 11:11:11;;;;;;;;;;;;;;;11.67;100.00;95448.53;10436513;28;2200;-73
2023/05/14 11:16:18;;;;;;;;;;;;;;;12.25;100.00;95437.53;10446278;28;1909;-71
2023/05/14 11:21:26;;;;;;;;;;;;;;;12.48;100.00;95425.06;10421697;28;1881;-72
2023/05/14 11:26:31;;;;;;;;;;;;;;;12.76;100.00;95417.88;10442206;28;1751;-71
2023/05/14 11:37:06;;;;;;;;;;;;;;;12.83;100.00;95402.09;10432723;28;4578;-72
2023/05/14 11:47:23;;;;;;;;;;;;;;;12.84;100.00;95405.59;10439498;28;1886;-72
2023/05/14 11:52:32;;;;;;;;;;;;;;;13.20;100.00;95386.88;10451145;28;1922;-70
2023/05/14 11:57:38;;;;;;;;;;;;;;;13.60;100.00;95381.78;10447191;28;1894;-73
2023/05/14 12:02:45;;;;;;;;;;;;;;;13.48;100.00;95383.09;10429045;28;1837;-74
2023/05/14 12:07:54;;;;;;;;;;;;;;;14.20;100.00;95368.03;10449188;28;2027;-72
2023/05/14 12:13:01;;;;;;;;;;;;;;;15.02;100.00;95359.53;10441790;28;1968;-70
2023/05/14 12:18:10;;;;;;;;;;;;;;;15.84;100.00;95343.69;10426750;28;1905;-73
2023/05/14 12:23:44;;;;;;;;;;;;;;;16.25;100.00;95337.81;10441867;28;1807;-72
2023/05/14 12:28:56;;;;;;;;;;;;;;;15.87;100.00;95324.09;10440710;28;2022;-72
2023/05/14 12:33:59;;;;;;;;;;;;;;;16.37;100.00;95321.69;10444099;28;4502;-72
2023/05/14 12:39:05;;;;;;;;;;;;;;;16.36;100.00;95324.72;10446797;28;1765;-73
2023/05/14 12:44:12;;;;;;;;;;;;;;;16.15;100.00;95311.00;10430090;28;1834;-72
2023/05/14 12:49:18;;;;;;;;;;;;;;;16.03;100.00;95300.81;10427673;28;1876;-72
2023/05/14 12:54:27;;;;;;;;;;;;;;;16.01;100.00;95281.34;10429693;28;1989;-74
2023/05/14 12:59:35;;;;;;;;;;;;;;;15.35;100.00;95283.34;10440545;28;1788;-73
2023/05/14 13:04:46;;;;;;;;;;;;;;;16.12;100.00;95277.19;10449075;28;1669;-74
2023/05/14 13:09:52;;;;;;;;;;;;;;;15.06;100.00;95284.69;10440171;28;1877;-73
2023/05/14 13:14:59;;;;;;;;;;;;;;;14.99;100.00;95278.94;10442476;28;1902;-72
2023/05/14 13:20:05;;;;;;;;;;;;;;;15.23;100.00;95261.50;10454158;28;1985;-75
2023/05/14 13:25:18;;;;;;;;;;;;;;;15.69;100.00;95252.81;10445267;28;1855;-73
2023/05/14 13:30:46;;;;;;;;;;;;;;;15.80;100.00;95237.03;10441724;28;1839;-74
2023/05/14 13:36:11;;;;;;;;;;;;;;;15.93;100.00;95241.50;10434099;28;7542;-74
2023/05/14 13:41:36;;;;;;;;;;;;;;;15.77;100.00;95238.47;10440936;28;5373;-75
2023/05/14 13:47:03;;;;;;;;;;;;;;;15.77;100.00;95232.25;10439877;28;1772;-74
2023/05/14 13:52:32;;;;;;;;;;;;;;;16.08;100.00;95226.66;10426073;28;5387;-71
2023/05/14 13:57:58;;;;;;;;;;;;;;;16.73;100.00;95218.19;10441956;28;1803;-72
2023/05/14 14:03:24;;;;;;;;;;;;;;;16.78;100.00;95200.91;10428083;28;1907;-74
2023/05/14 14:08:48;;;;;;;;;;;;;;;16.09;100.00;95201.91;10443841;28;3530;-74
2023/05/14 14:14:14;;;;;;;;;;;;;;;16.66;100.00;95198.84;10443292;28;1997;-71
2023/05/14 14:19:38;;;;;;;;;;;;;;;17.03;100.00;95197.28;10441600;28;1843;-71
2023/05/14 14:25:04;;;;;;;;;;;;;;;16.44;100.00;95182.84;10439595;28;1902;-73
2023/05/14 14:30:33;;;;;;;;;;;;;;;17.00;100.00;95176.22;10443405;28;1878;-72
2023/05/14 14:35:57;;;;;;;;;;;;;;;17.78;95.85;95162.06;10439076;28;1898;-72
2023/05/14 14:41:21;;;;;;;;;;;;;;;18.41;90.79;95153.75;10436604;28;5115;-73
2023/05/14 14:46:48;;;;;;;;;;;;;;;17.26;99.48;95167.91;10439010;28;1937;-71
2023/05/14 14:52:16;;;;;;;;;;;;;;;17.67;94.08;95152.69;10442554;28;1903;-71
2023/05/14 14:57:42;;;;;;;;;;;;;;;18.11;92.91;95153.09;10442797;28;1815;-76
2023/05/14 15:03:09;;;;;;;;;;;;;;;17.27;100.00;95166.78;10439550;28;2030;-74
2023/05/14 15:08:38;;;;;;;;;;;;;;;17.04;99.33;95160.06;10441936;28;1846;-73
2023/05/14 15:14:09;;;;;;;;;;;;;;;16.83;99.29;95151.88;10423313;28;1963;-74
2023/05/14 15:19:37;;;;;;;;;;;;;;;17.03;99.04;95148.41;10437569;28;1854;-73
2023/05/14 15:25:05;;;;;;;;;;;;;;;16.52;99.75;95140.53;10444626;28;1816;-72
2023/05/14 15:30:32;;;;;;;;;;;;;;;17.78;92.21;95143.03;10447686;28;1748;-72
2023/05/14 15:41:38;;;;;;;;;;;;;;;17.70;97.86;95143.09;10436306;28;5204;-71
2023/05/14 15:47:02;;;;;;;;;;;;;;;16.88;100.00;95151.69;10430511;28;1859;-75
2023/05/14 15:52:26;;;;;;;;;;;;;;;16.20;100.00;95170.63;10443463;28;1918;-73
2023/05/14 15:57:49;;;;;;;;;;;;;;;14.62;100.00;95182.03;10443468;28;1977;-71
2023/05/14 16:03:17;;;;;;;;;;;;;;;13.42;100.00;95200.72;10442567;28;1917;-73
2023/05/14 16:08:50;;;;;;;;;;;;;;;12.79;100.00;95220.41;10443205;28;1855;-75
2023/05/14 16:14:17;;;;;;;;;;;;;;;12.53;100.00;95240.84;10438821;28;1950;-74
2023/05/14 16:19:48;;;;;;;;;;;;;;;12.16;100.00;95250.69;10445194;28;1839;-73
2023/05/14 16:25:24;;;;;;;;;;;;;;;12.04;100.00;95242.28;10430389;28;2033;-74
2023/05/14 16:36:31;;;;;;;;;;;;;;;11.67;100.00;95260.06;10438880;28;2421;-76
2023/05/14 16:42:06;;;;;;;;;;;;;;;11.63;100.00;95267.13;10439799;28;1945;-72
2023/05/14 16:47:40;;;;;;;;;;;;;;;11.72;100.00;95264.59;10444587;28;1978;-74
2023/05/14 16:53:05;;;;;;;;;;;;;;;11.59;100.00;95268.81;10436915;28;1942;-73
2023/05/14 16:58:29;;;;;;;;;;;;;;;11.26;100.00;95282.19;10426062;28;1995;-73
2023/05/14 17:03:54;;;;;;;;;;;;;;;11.02;100.00;95278.75;10440535;28;1764;-72
2023/05/14 17:09:17;;;;;;;;;;;;;;;10.88;100.00;95280.50;10438351;28;1826;-74
2023/05/14 17:14:45;;;;;;;;;;;;;;;10.79;100.00;95277.66;10439262;28;1883;-70
2023/05/14 17:19:50;;;;;;;;;;;;;;;10.68;100.00;95284.22;10443214;28;1981;-70
2023/05/14 17:24:55;;;;;;;;;;;;;;;10.76;100.00;95273.66;10433562;28;1855;-70
2023/05/14 17:30:30;;;;;;;;;;;;;;;10.74;100.00;95275.03;10443611;28;1761;-68
2023/05/14 17:41:35;;;;;;;;;;;;;;;10.83;100.00;95271.44;10437242;28;2018;-70
2023/05/14 17:46:59;;;;;;;;;;;;;;;10.88;100.00;95270.56;10447673;28;1853;-69
2023/05/14 17:52:28;;;;;;;;;;;;;;;10.90;100.00;95272.97;10438196;28;9616;-66
2023/05/14 17:57:53;;;;;;;;;;;;;;;10.92;100.00;95273.47;10435972;28;7388;-69
2023/05/14 18:03:04;;;;;;;;;;;;;;;11.07;100.00;95284.06;10426037;28;5333;-68
2023/05/14 18:08:28;;;;;;;;;;;;;;;10.95;100.00;95268.34;10429687;28;9444;-68
2023/05/14 18:13:53;;;;;;;;;;;;;;;10.90;100.00;95263.00;10428599;28;5297;-67
2023/05/14 18:19:02;;;;;;;;;;;;;;;10.95;100.00;95260.25;10434691;28;6702;-68
2023/05/14 18:24:05;;;;;;;;;;;;;;;10.90;100.00;95262.22;10438051;28;5417;-76
2023/05/14 18:29:35;;;;;;;;;;;;;;;10.81;100.00;95270.91;10430908;28;6541;-70
2023/05/14 18:34:42;;;;;;;;;;;;;;;10.77;100.00;95280.63;10425268;28;5386;-68
2023/05/14 18:39:47;;;;;;;;;;;;;;;10.66;100.00;95278.34;10424535;28;5334;-69
2023/05/14 18:44:53;;;;;;;;;;;;;;;10.67;100.00;95274.56;10443891;28;1827;-70
2023/05/14 18:50:01;;;;;;;;;;;;;;;10.60;100.00;95288.34;10441172;28;5416;-70
2023/05/14 18:55:28;;;;;;;;;;;;;;;10.57;100.00;95288.94;10444317;28;1906;-68
2023/05/14 19:00:41;;;;;;;;;;;;;;;10.69;100.00;95289.34;10434504;28;1851;-71
2023/05/14 19:05:53;;;;;;;;;;;;;;;10.63;100.00;95300.44;10428620;28;3575;-72
2023/05/14 19:11:07;;;;;;;;;;;;;;;10.42;100.00;95307.88;10445201;28;1903;-69
2023/05/14 19:16:11;;;;;;;;;;;;;;;10.32;100.00;95308.78;10447535;28;1974;-71
2023/05/14 19:21:15;;;;;;;;;;;;;;;10.10;100.00;95309.19;10450181;28;1910;-73
2023/05/14 19:26:29;;;;;;;;;;;;;;;9.93;100.00;95308.81;10444198;28;1929;-72
2023/05/14 19:31:34;;;;;;;;;;;;;;;9.79;100.00;95319.38;10438784;28;1814;-70
2023/05/14 19:36:50;;;;;;;;;;;;;;;9.68;100.00;95321.34;10453116;28;8648;-71
2023/05/14 19:41:55;;;;;;;;;;;;;;;9.67;100.00;95306.31;10441874;28;1942;-73
2023/05/14 19:46:58;;;;;;;;;;;;;;;9.70;100.00;95310.31;10451068;28;1823;-78
2023/05/14 19:52:21;;;;;;;;;;;;;;;9.74;100.00;95319.44;10449670;28;1871;-69
2023/05/14 19:57:41;;;;;;;;;;;;;;;9.80;100.00;95320.16;10450680;28;1906;-70
2023/05/14 20:02:44;;;;;;;;;;;;;;;9.80;100.00;95314.81;10450771;28;1886;-69
2023/05/14 20:07:47;;;;;;;;;;;;;;;9.83;100.00;95315.06;10447353;28;2099;-69
2023/05/14 20:12:50;;;;;;;;;;;;;;;9.93;100.00;95322.25;10436949;28;2413;-69
2023/05/14 20:17:58;;;;;;;;;;;;;;;10.06;100.00;95318.13;10442044;28;1887;-68
2023/05/14 20:23:00;;;;;;;;;;;;;;;10.19;100.00;95312.91;10451054;28;1816;-70
2023/05/14 20:28:07;;;;;;;;;;;;;;;10.16;100.00;95308.06;10440340;28;1887;-69
2023/05/14 20:33:13;;;;;;;;;;;;;;;10.16;100.00;95302.72;10440596;28;1916;-70
2023/05/14 20:38:18;;;;;;;;;;;;;;;10.24;100.00;95304.00;10442517;28;5202;-69
2023/05/14 20:43:21;;;;;;;;;;;;;;;10.21;100.00;95302.66;10418134;28;1902;-69
2023/05/14 20:48:25;;;;;;;;;;;;;;;10.28;100.00;95305.06;10442074;28;1935;-70
2023/05/14 20:53:28;;;;;;;;;;;;;;;10.21;100.00;95293.81;10440525;28;1870;-70
2023/05/14 20:58:34;;;;;;;;;;;;;;;10.24;100.00;95299.47;10446880;28;1985;-73
2023/05/14 21:03:43;;;;;;;;;;;;;;;10.19;100.00;95294.09;10431900;28;1820;-70
2023/05/14 21:08:46;;;;;;;;;;;;;;;10.19;100.00;95296.78;10444473;28;1649;-69
2023/05/14 21:13:49;;;;;;;;;;;;;;;10.17;100.00;95282.81;10427292;28;2005;-68
2023/05/14 21:18:52;;;;;;;;;;;;;;;10.11;100.00;95283.94;10421352;28;1909;-67
2023/05/14 21:23:56;;;;;;;;;;;;;;;10.18;100.00;95279.06;10440642;28;1828;-69
2023/05/14 21:29:08;;;;;;;;;;;;;;;10.09;100.00;95286.13;10443220;28;1841;-68
2023/05/14 21:34:13;;;;;;;;;;;;;;;10.12;100.00;95285.56;10421741;28;1914;-68
2023/05/14 21:39:17;;;;;;;;;;;;;;;10.02;100.00;95285.66;10421602;28;5774;-72
2023/05/14 21:44:21;;;;;;;;;;;;;;;9.86;100.00;95303.78;10438980;28;2004;-68
2023/05/14 21:49:26;;;;;;;;;;;;;;;9.88;100.00;95298.91;10440602;28;2178;-69
2023/05/14 21:54:31;;;;;;;;;;;;;;;9.87;100.00;95291.16;10442179;28;1816;-69
2023/05/14 21:59:39;;;;;;;;;;;;;;;9.84;100.00;95283.66;10439689;28;1904;-69
2023/05/14 22:04:44;;;;;;;;;;;;;;;9.90;100.00;95283.31;10422779;28;1859;-69
2023/05/14 22:09:48;;;;;;;;;;;;;;;9.96;100.00;95281.41;10433558;28;2120;-69
2023/05/14 22:14:54;;;;;;;;;;;;;;;9.88;100.00;95284.69;10417388;28;1982;-69
2023/05/14 22:19:58;;;;;;;;;;;;;;;9.84;100.00;95279.06;10438531;28;1877;-69
2023/05/14 22:25:02;;;;;;;;;;;;;;;9.92;100.00;95283.03;10405918;28;1792;-69
2023/05/14 22:30:04;;;;;;;;;;;;;;;9.83;100.00;95282.84;10437702;28;2082;-71
2023/05/14 22:35:08;;;;;;;;;;;;;;;9.65;100.00;95281.63;10440125;28;1985;-68
2023/05/14 22:40:16;;;;;;;;;;;;;;;9.74;100.00;95279.97;10438638;28;5589;-69
2023/05/14 22:45:20;;;;;;;;;;;;;;;9.70;100.00;95265.50;10436034;28;1903;-68
2023/05/14 22:50:24;;;;;;;;;;;;;;;9.70;100.00;95268.19;10437030;28;1855;-68
2023/05/14 22:55:27;;;;;;;;;;;;;;;9.64;100.00;95263.94;10405757;28;1999;-68
2023/05/14 23:00:30;;;;;;;;;;;;;;;9.67;100.00;95271.44;10440627;28;1800;-68
2023/05/14 23:05:33;;;;;;;;;;;;;;;9.70;100.00;95256.66;10435186;28;1871;-67
2023/05/14 23:10:37;;;;;;;;;;;;;;;9.71;100.00;95263.63;10440681;28;1855;-68
2023/05/14 23:15:41;;;;;;;;;;;;;;;9.66;100.00;95277.88;10437762;28;1910;-70
2023/05/14 23:20:45;;;;;;;;;;;;;;;9.60;100.00;95268.25;10426061;28;1821;-70
2023/05/14 23:25:49;;;;;;;;;;;;;;;9.61;100.00;95252.97;10436352;28;2040;-67
2023/05/14 23:30:54;;;;;;;;;;;;;;;9.63;100.00;95250.81;10442213;28;1829;-76
2023/05/14 23:35:57;;;;;;;;;;;;;;;9.66;100.00;95242.19;10422214;28;2039;-69
2023/05/14 23:41:03;;;;;;;;;;;;;;;9.65;100.00;95227.97;10442506;28;5659;-70
2023/05/14 23:46:07;;;;;;;;;;;;;;;9.64;100.00;95238.97;10446450;28;1891;-69
2023/05/14 23:51:11;;;;;;;;;;;;;;;9.65;100.00;95233.31;10449721;28;1765;-69
2023/05/14 23:56:15;;;;;;;;;;;;;;;9.66;100.00;95226.88;10447924;28;1902;-69
